createdAt,value
2023-03-20T00:01:16.382Z,11.65
2023-03-20T00:03:43.132Z,11.65
2023-03-20T00:06:18.374Z,11.66
2023-03-20T00:08:47.174Z,11.67
2023-03-20T00:11:31.136Z,11.68
2023-03-20T00:14:07.099Z,11.70
2023-03-20T00:16:36.973Z,11.70
2023-03-20T00:19:05.106Z,11.71
2023-03-20T00:21:32.620Z,11.69
2023-03-20T00:24:00.532Z,11.69
2023-03-20T00:26:34.764Z,11.69
2023-03-20T00:29:03.943Z,11.69
2023-03-20T00:31:33.382Z,11.69
2023-03-20T00:34:02.404Z,11.68
2023-03-20T00:36:29.497Z,11.65
2023-03-20T00:38:59.351Z,11.61
2023-03-20T00:41:32.690Z,11.53
2023-03-20T00:44:22.398Z,11.46
2023-03-20T00:47:01.549Z,11.38
2023-03-20T00:49:30.790Z,11.31
2023-03-20T00:51:58.042Z,11.25
2023-03-20T00:54:24.885Z,11.19
2023-03-20T00:57:19.950Z,11.14
2023-03-20T00:59:56.340Z,11.09
2023-03-20T01:02:28.947Z,11.08
2023-03-20T01:04:55.982Z,11.07
2023-03-20T01:07:22.518Z,11.04
2023-03-20T01:09:48.964Z,11.01
2023-03-20T01:12:16.364Z,10.99
2023-03-20T01:14:43.759Z,11.01
2023-03-20T01:17:23.066Z,11.03
2023-03-20T01:19:49.874Z,11.02
2023-03-20T01:22:18.096Z,11.04
2023-03-20T01:24:44.807Z,11.02
2023-03-20T01:27:16.965Z,11.02
2023-03-20T01:29:44.298Z,11.00
2023-03-20T01:32:13.912Z,10.95
2023-03-20T01:34:40.774Z,10.92
2023-03-20T01:37:14.088Z,10.92
2023-03-20T01:39:41.029Z,10.90
2023-03-20T01:42:08.075Z,10.89
2023-03-20T01:44:36.441Z,10.86
2023-03-20T01:47:14.886Z,10.84
2023-03-20T01:50:00.406Z,10.82
2023-03-20T01:52:27.269Z,10.83
2023-03-20T01:54:53.747Z,10.84
2023-03-20T01:57:25.666Z,10.83
2023-03-20T02:00:03.804Z,10.72
2023-03-20T02:02:44.037Z,10.56
2023-03-20T02:05:17.670Z,10.38
2023-03-20T02:07:49.978Z,10.27
2023-03-20T02:10:18.979Z,10.14
2023-03-20T02:12:52.885Z,10.06
2023-03-20T02:15:29.788Z,9.99
2023-03-20T02:18:14.025Z,9.96
2023-03-20T02:21:03.535Z,9.92
2023-03-20T02:23:53.045Z,9.90
2023-03-20T02:26:40.676Z,9.85
2023-03-20T02:29:36.645Z,9.84
2023-03-20T02:32:18.757Z,9.82
2023-03-20T02:35:01.254Z,9.82
2023-03-20T02:37:27.715Z,9.83
2023-03-20T02:40:16.071Z,9.81
2023-03-20T02:43:10.926Z,9.80
2023-03-20T02:46:14.196Z,9.77
2023-03-20T02:48:58.028Z,9.75
2023-03-20T02:51:36.380Z,9.74
2023-03-20T02:54:21.735Z,9.73
2023-03-20T02:57:16.445Z,9.74
2023-03-20T02:59:55.612Z,9.75
2023-03-20T03:02:34.639Z,9.75
2023-03-20T03:05:05.474Z,9.78
2023-03-20T03:07:34.738Z,9.79
2023-03-20T03:10:11.583Z,9.80
2023-03-20T03:12:43.278Z,9.80
2023-03-20T03:15:22.893Z,9.77
2023-03-20T03:17:49.792Z,9.77
2023-03-20T03:20:24.510Z,9.74
2023-03-20T03:22:51.398Z,9.72
2023-03-20T03:25:18.164Z,9.71
2023-03-20T03:27:53.198Z,9.74
2023-03-20T03:30:29.842Z,9.74
2023-03-20T03:33:23.067Z,9.73
2023-03-20T03:35:51.423Z,9.74
2023-03-20T03:38:37.985Z,9.74
2023-03-20T03:41:28.464Z,9.73
2023-03-20T03:44:18.236Z,9.72
2023-03-20T03:46:53.766Z,9.72
2023-03-20T03:49:29.060Z,9.72
2023-03-20T03:52:00.629Z,9.73
2023-03-20T03:54:34.558Z,9.74
2023-03-20T03:57:27.862Z,9.75
2023-03-20T03:59:57.229Z,9.74
2023-03-20T04:02:24.164Z,9.72
2023-03-20T04:04:53.098Z,9.68
2023-03-20T04:07:20.458Z,9.59
2023-03-20T04:09:47.212Z,9.49
2023-03-20T04:12:38.210Z,9.39
2023-03-20T04:15:09.586Z,9.34
2023-03-20T04:17:36.493Z,9.30
2023-03-20T04:20:05.009Z,9.35
2023-03-20T04:22:34.695Z,9.39
2023-03-20T04:25:17.445Z,9.46
2023-03-20T04:27:43.945Z,9.50
2023-03-20T04:30:18.734Z,9.55
2023-03-20T04:33:04.149Z,9.59
2023-03-20T04:35:42.754Z,9.57
2023-03-20T04:38:12.928Z,9.51
2023-03-20T04:40:39.945Z,9.44
2023-03-20T04:43:06.581Z,9.38
2023-03-20T04:45:33.830Z,9.31
2023-03-20T04:48:01.901Z,9.25
2023-03-20T04:50:29.306Z,9.17
2023-03-20T04:52:56.083Z,9.10
2023-03-20T04:55:22.891Z,9.05
2023-03-20T04:57:50.662Z,9.02
2023-03-20T05:00:18.433Z,9.03
2023-03-20T05:02:45.531Z,9.04
2023-03-20T05:05:12.040Z,9.08
2023-03-20T05:07:38.563Z,9.12
2023-03-20T05:10:09.132Z,9.18
2023-03-20T05:12:44.745Z,9.25
2023-03-20T05:15:29.825Z,9.32
2023-03-20T05:18:14.774Z,9.42
2023-03-20T05:20:52.991Z,9.49
2023-03-20T05:23:27.214Z,9.55
2023-03-20T05:26:12.481Z,9.61
2023-03-20T05:29:05.756Z,9.67
2023-03-20T05:31:43.142Z,9.69
2023-03-20T05:34:18.109Z,9.73
2023-03-20T05:36:54.446Z,9.79
2023-03-20T05:39:46.684Z,9.82
2023-03-20T05:42:26.642Z,9.83
2023-03-20T05:45:10.252Z,9.86
2023-03-20T05:48:02.689Z,9.85
2023-03-20T05:50:40.933Z,9.87
2023-03-20T05:53:27.776Z,9.91
2023-03-20T05:55:54.286Z,9.93
2023-03-20T05:58:50.074Z,10.01
2023-03-20T06:01:31.222Z,10.10
2023-03-20T06:04:08.447Z,10.16
2023-03-20T06:06:59.397Z,10.22
2023-03-20T06:09:26.637Z,10.29
2023-03-20T06:11:53.655Z,10.34
2023-03-20T06:14:21.011Z,10.39
2023-03-20T06:16:55.256Z,10.47
2023-03-20T06:19:22.130Z,10.54
2023-03-20T06:21:49.934Z,10.56
2023-03-20T06:24:19.219Z,10.61
2023-03-20T06:26:45.990Z,10.59
2023-03-20T06:29:13.560Z,10.60
2023-03-20T06:31:40.348Z,10.62
2023-03-20T06:34:11.364Z,10.65
2023-03-20T06:36:45.241Z,10.68
2023-03-20T06:39:17.792Z,10.70
2023-03-20T06:41:44.267Z,10.70
2023-03-20T06:44:11.140Z,10.71
2023-03-20T06:46:56.554Z,10.72
2023-03-20T06:49:23.211Z,10.69
2023-03-20T06:51:50.661Z,10.66
2023-03-20T06:54:23.652Z,10.63
2023-03-20T06:56:51.500Z,10.61
2023-03-20T06:59:18.378Z,10.58
2023-03-20T07:01:45.542Z,10.59
2023-03-20T07:04:12.748Z,10.61
2023-03-20T07:06:46.282Z,10.62
2023-03-20T07:09:12.854Z,10.60
2023-03-20T07:11:39.549Z,10.58
2023-03-20T07:14:06.232Z,10.60
2023-03-20T07:16:59.392Z,10.62
2023-03-20T07:19:26.187Z,10.63
2023-03-20T07:22:01.808Z,10.66
2023-03-20T07:24:32.703Z,10.65
2023-03-20T07:26:59.797Z,10.66
2023-03-20T07:29:26.966Z,10.64
2023-03-20T07:31:54.778Z,10.60
2023-03-20T07:34:29.029Z,10.64
2023-03-20T07:36:56.436Z,10.67
2023-03-20T07:39:23.175Z,10.69
2023-03-20T07:42:08.743Z,10.73
2023-03-20T07:44:44.912Z,10.75
2023-03-20T07:47:12.023Z,10.74
2023-03-20T07:49:38.447Z,10.74
2023-03-20T07:52:07.249Z,10.72
2023-03-20T07:54:33.758Z,10.79
2023-03-20T07:57:00.282Z,10.85
2023-03-20T07:59:27.076Z,10.91
2023-03-20T08:01:53.556Z,10.95
2023-03-20T08:04:22.626Z,11.01
2023-03-20T08:06:49.765Z,11.00
2023-03-20T08:09:16.935Z,11.06
2023-03-20T08:11:43.693Z,11.17
2023-03-20T08:14:10.574Z,11.21
2023-03-20T08:16:37.164Z,11.24
2023-03-20T08:19:05.308Z,11.22
2023-03-20T08:21:32.790Z,11.21
2023-03-20T08:23:59.223Z,11.22
2023-03-20T08:26:26.020Z,11.18
2023-03-20T08:28:53.237Z,11.15
2023-03-20T08:31:20.214Z,11.18
2023-03-20T08:33:47.170Z,11.20
2023-03-20T08:36:15.860Z,11.20
2023-03-20T08:38:42.870Z,11.20
2023-03-20T08:41:11.137Z,11.31
2023-03-20T08:43:37.913Z,11.41
2023-03-20T08:46:04.750Z,11.37
2023-03-20T08:48:33.152Z,11.40
2023-03-20T08:50:59.817Z,11.46
2023-03-20T08:53:27.218Z,11.56
2023-03-20T08:55:54.352Z,11.46
2023-03-20T08:58:21.536Z,11.44
2023-03-20T09:00:48.012Z,11.35
2023-03-20T09:03:17.606Z,11.39
2023-03-20T09:05:45.494Z,11.29
2023-03-20T09:08:12.853Z,11.21
2023-03-20T09:10:40.711Z,11.12
2023-03-20T09:13:25.640Z,11.03
2023-03-20T09:15:53.476Z,10.95
2023-03-20T09:18:21.356Z,10.81
2023-03-20T09:20:48.619Z,10.76
2023-03-20T09:23:15.768Z,10.74
2023-03-20T09:25:42.255Z,10.71
2023-03-20T09:28:09.102Z,10.72
2023-03-20T09:30:36.345Z,10.70
2023-03-20T09:33:03.009Z,10.75
2023-03-20T09:35:29.498Z,10.81
2023-03-20T09:37:56.579Z,10.86
2023-03-20T09:40:28.868Z,10.85
2023-03-20T09:42:58.832Z,10.88
2023-03-20T09:45:41.448Z,10.94
2023-03-20T09:48:20.204Z,10.94
2023-03-20T09:50:53.805Z,11.00
2023-03-20T09:53:35.542Z,11.04
2023-03-20T09:56:02.583Z,11.08
2023-03-20T09:58:33.642Z,11.10
2023-03-20T10:01:02.558Z,11.13
2023-03-20T10:03:50.605Z,11.10
2023-03-20T10:06:18.053Z,11.08
2023-03-20T10:08:45.933Z,11.09
2023-03-20T10:11:34.227Z,11.11
2023-03-20T10:14:21.304Z,11.09
2023-03-20T10:17:13.706Z,11.05
2023-03-20T10:19:53.361Z,11.03
2023-03-20T10:22:32.779Z,11.22
2023-03-20T10:25:07.325Z,11.30
2023-03-20T10:27:41.951Z,11.23
2023-03-20T10:30:20.368Z,11.19
2023-03-20T10:33:18.914Z,11.17
2023-03-20T10:36:01.835Z,11.22
2023-03-20T10:38:49.319Z,11.22
2023-03-20T10:41:23.214Z,11.27
2023-03-20T10:43:52.745Z,11.27
2023-03-20T10:46:44.684Z,11.26
2023-03-20T10:49:35.961Z,11.21
2023-03-20T10:52:06.590Z,11.20
2023-03-20T10:54:41.994Z,11.26
2023-03-20T10:57:17.948Z,11.33
2023-03-20T10:59:49.632Z,11.44
2023-03-20T11:02:18.253Z,11.74
2023-03-20T11:04:45.039Z,12.01
2023-03-20T11:07:26.880Z,12.08
2023-03-20T11:10:05.579Z,12.16
2023-03-20T11:12:34.206Z,12.22
2023-03-20T11:15:04.907Z,12.24
2023-03-20T11:17:31.378Z,12.27
2023-03-20T11:20:05.129Z,12.27
2023-03-20T11:22:32.086Z,12.24
2023-03-20T11:25:04.227Z,12.10
2023-03-20T11:27:35.974Z,12.01
2023-03-20T11:30:06.012Z,11.91
2023-03-20T11:32:42.060Z,11.78
2023-03-20T11:35:24.000Z,11.80
2023-03-20T11:37:52.837Z,11.77
2023-03-20T11:40:34.243Z,11.73
2023-03-20T11:43:00.696Z,11.62
2023-03-20T11:45:34.396Z,11.63
2023-03-20T11:48:03.504Z,11.64
2023-03-20T11:50:42.035Z,11.63
2023-03-20T11:53:23.315Z,11.69
2023-03-20T11:56:14.718Z,11.95
2023-03-20T11:59:10.397Z,12.23
2023-03-20T12:01:44.548Z,12.38
2023-03-20T12:04:17.973Z,12.36
2023-03-20T12:07:19.470Z,12.18
2023-03-20T12:09:54.968Z,12.01
2023-03-20T12:12:43.644Z,11.92
2023-03-20T12:15:12.925Z,11.92
2023-03-20T12:17:58.261Z,12.14
2023-03-20T12:20:34.187Z,12.60
2023-03-20T12:23:14.068Z,12.74
2023-03-20T12:26:03.048Z,12.89
2023-03-20T12:28:38.524Z,12.95
2023-03-20T12:31:05.064Z,12.95
2023-03-20T12:33:42.887Z,12.86
2023-03-20T12:36:16.543Z,12.70
2023-03-20T12:38:44.098Z,12.57
2023-03-20T12:41:44.557Z,12.61
2023-03-20T12:44:20.908Z,12.67
2023-03-20T12:46:59.773Z,12.60
2023-03-20T12:49:42.976Z,12.48
2023-03-20T12:52:37.476Z,12.31
2023-03-20T12:55:29.885Z,12.26
2023-03-20T12:58:18.372Z,12.15
2023-03-20T13:01:03.757Z,12.24
2023-03-20T13:03:36.719Z,12.50
2023-03-20T13:06:30.749Z,12.79
2023-03-20T13:09:06.135Z,13.11
2023-03-20T13:11:45.872Z,13.15
2023-03-20T13:14:18.528Z,12.96
2023-03-20T13:17:03.652Z,12.78
2023-03-20T13:19:42.104Z,12.72
2023-03-20T13:22:25.506Z,12.79
2023-03-20T13:25:25.282Z,12.83
2023-03-20T13:28:01.842Z,12.89
2023-03-20T13:30:44.221Z,12.92
2023-03-20T13:33:28.547Z,12.80
2023-03-20T13:36:07.221Z,12.91
2023-03-20T13:38:38.597Z,12.95
2023-03-20T13:41:09.729Z,12.96
2023-03-20T13:43:48.409Z,12.83
2023-03-20T13:46:19.198Z,12.82
2023-03-20T13:48:46.722Z,13.07
2023-03-20T13:51:31.683Z,13.17
2023-03-20T13:54:32.335Z,13.19
2023-03-20T13:57:22.551Z,13.28
2023-03-20T14:00:05.100Z,13.60
2023-03-20T14:02:53.602Z,13.58
2023-03-20T14:05:23.393Z,13.38
2023-03-20T14:07:56.481Z,13.26
2023-03-20T14:10:23.285Z,13.16
2023-03-20T14:13:00.689Z,13.17
2023-03-20T14:15:31.621Z,13.17
2023-03-20T14:18:02.967Z,13.22
2023-03-20T14:20:41.885Z,13.21
2023-03-20T14:23:18.396Z,13.07
2023-03-20T14:25:47.716Z,12.92
2023-03-20T14:28:14.234Z,12.78
2023-03-20T14:30:53.431Z,12.77
2023-03-20T14:33:22.950Z,12.91
2023-03-20T14:36:12.348Z,12.96
2023-03-20T14:39:03.763Z,13.05
2023-03-20T14:41:47.187Z,13.16
2023-03-20T14:44:29.972Z,13.02
2023-03-20T14:47:18.998Z,13.02
2023-03-20T14:49:52.769Z,13.00
2023-03-20T14:52:34.759Z,13.01
2023-03-20T14:55:47.812Z,12.98
2023-03-20T14:58:35.770Z,12.79
2023-03-20T15:01:07.693Z,12.85
2023-03-20T15:03:36.166Z,12.89
2023-03-20T15:06:06.960Z,12.75
2023-03-20T15:08:50.826Z,12.59
2023-03-20T15:11:18.052Z,12.48
2023-03-20T15:13:46.114Z,12.52
2023-03-20T15:16:15.031Z,12.57
2023-03-20T15:18:52.589Z,12.47
2023-03-20T15:21:23.403Z,12.41
2023-03-20T15:23:49.879Z,12.36
2023-03-20T15:26:19.662Z,12.34
2023-03-20T15:28:47.433Z,12.28
2023-03-20T15:31:27.453Z,12.25
2023-03-20T15:33:55.634Z,12.32
2023-03-20T15:36:30.164Z,12.21
2023-03-20T15:39:16.761Z,12.07
2023-03-20T15:41:51.383Z,12.01
2023-03-20T15:44:25.588Z,11.94
2023-03-20T15:47:00.425Z,11.96
2023-03-20T15:49:28.068Z,11.96
2023-03-20T15:51:59.472Z,11.97
2023-03-20T15:54:26.300Z,11.98
2023-03-20T15:56:56.025Z,11.90
2023-03-20T15:59:27.578Z,11.84
2023-03-20T16:01:57.887Z,11.80
2023-03-20T16:04:26.078Z,11.75
2023-03-20T16:06:55.776Z,11.67
2023-03-20T16:09:22.692Z,11.62
2023-03-20T16:12:02.650Z,11.55
2023-03-20T16:14:32.548Z,11.52
2023-03-20T16:17:01.576Z,11.48
2023-03-20T16:19:29.163Z,11.45
2023-03-20T16:21:59.366Z,11.43
2023-03-20T16:24:35.415Z,11.40
2023-03-20T16:27:07.792Z,11.36
2023-03-20T16:29:35.812Z,11.32
2023-03-20T16:32:12.024Z,11.29
2023-03-20T16:34:39.626Z,11.26
2023-03-20T16:37:27.620Z,11.26
2023-03-20T16:40:16.136Z,11.26
2023-03-20T16:42:43.778Z,11.22
2023-03-20T16:45:30.251Z,11.19
2023-03-20T16:48:23.992Z,11.16
2023-03-20T16:50:57.163Z,11.12
2023-03-20T16:53:24.893Z,11.09
2023-03-20T16:55:55.578Z,11.05
2023-03-20T16:58:25.610Z,11.00
2023-03-20T17:01:04.863Z,10.97
2023-03-20T17:03:43.659Z,10.93
2023-03-20T17:06:19.630Z,10.91
2023-03-20T17:08:50.179Z,10.86
2023-03-20T17:11:32.924Z,10.83
2023-03-20T17:13:59.992Z,10.80
2023-03-20T17:16:26.938Z,10.76
2023-03-20T17:19:07.305Z,10.73
2023-03-20T17:21:34.338Z,10.71
2023-03-20T17:24:00.824Z,10.67
2023-03-20T17:26:27.340Z,10.66
2023-03-20T17:28:54.700Z,10.63
2023-03-20T17:31:21.278Z,10.60
2023-03-20T17:33:47.860Z,10.57
2023-03-20T17:36:26.352Z,10.54
2023-03-20T17:38:53.771Z,10.54
2023-03-20T17:41:21.350Z,10.50
2023-03-20T17:43:48.023Z,10.50
2023-03-20T17:46:27.213Z,10.48
2023-03-20T17:49:01.661Z,10.46
2023-03-20T17:51:28.554Z,10.44
2023-03-20T17:53:57.719Z,10.44
2023-03-20T17:56:32.480Z,10.43
2023-03-20T17:59:00.354Z,10.41
2023-03-20T18:01:28.423Z,10.37
2023-03-20T18:03:56.514Z,10.35
2023-03-20T18:06:31.429Z,10.29
2023-03-20T18:08:59.983Z,10.24
2023-03-20T18:11:27.166Z,10.18
2023-03-20T18:13:53.870Z,10.14
2023-03-20T18:16:23.407Z,10.12
2023-03-20T18:18:50.904Z,10.09
2023-03-20T18:21:17.709Z,10.06
2023-03-20T18:23:48.212Z,10.04
2023-03-20T18:26:23.804Z,10.02
2023-03-20T18:28:52.209Z,9.99
2023-03-20T18:31:19.629Z,9.96
2023-03-20T18:33:48.009Z,9.94
2023-03-20T18:36:20.585Z,9.92
2023-03-20T18:38:47.823Z,9.91
2023-03-20T18:41:14.867Z,9.90
2023-03-20T18:43:42.271Z,9.89
2023-03-20T18:46:17.526Z,9.88
2023-03-20T18:48:44.578Z,9.86
2023-03-20T18:51:11.695Z,9.85
2023-03-20T18:53:40.713Z,9.82
2023-03-20T18:56:14.041Z,9.80
2023-03-20T18:58:40.854Z,9.80
2023-03-20T19:01:07.459Z,9.78
2023-03-20T19:03:39.196Z,9.79
2023-03-20T19:06:10.555Z,9.78
2023-03-20T19:08:38.739Z,9.78
2023-03-20T19:11:05.918Z,9.78
2023-03-20T19:13:32.379Z,9.78
2023-03-20T19:15:58.984Z,9.77
2023-03-20T19:18:26.905Z,9.79
2023-03-20T19:20:56.093Z,9.80
2023-03-20T19:23:24.435Z,9.81
2023-03-20T19:25:53.099Z,9.82
2023-03-20T19:28:34.540Z,9.82
2023-03-20T19:31:05.032Z,9.83
2023-03-20T19:33:33.201Z,9.82
2023-03-20T19:36:03.312Z,9.81
2023-03-20T19:38:31.284Z,9.78
2023-03-20T19:40:59.249Z,9.77
2023-03-20T19:43:25.995Z,9.74
2023-03-20T19:45:58.014Z,9.74
2023-03-20T19:48:27.919Z,9.72
2023-03-20T19:50:56.411Z,9.69
2023-03-20T19:53:27.677Z,9.67
2023-03-20T19:55:55.430Z,9.66
2023-03-20T19:58:22.595Z,9.66
2023-03-20T20:00:59.176Z,9.65
2023-03-20T20:03:27.260Z,9.64
2023-03-20T20:05:54.454Z,9.64
2023-03-20T20:08:41.363Z,9.63
2023-03-20T20:11:09.764Z,9.60
2023-03-20T20:13:47.146Z,9.58
2023-03-20T20:16:22.802Z,9.56
2023-03-20T20:18:49.345Z,9.53
2023-03-20T20:24:03.203Z,9.50
2023-03-20T20:26:31.247Z,9.50
2023-03-20T20:29:01.908Z,9.50
2023-03-20T20:31:31.862Z,9.48
2023-03-20T20:34:34.890Z,9.47
2023-03-20T20:39:31.923Z,9.47
2023-03-20T20:41:58.407Z,9.46
2023-03-20T20:44:24.871Z,9.44
2023-03-20T20:46:51.601Z,9.43
2023-03-20T20:49:19.774Z,9.42
2023-03-20T20:51:47.428Z,9.42
2023-03-20T20:54:14.262Z,9.42
2023-03-20T20:56:41.587Z,9.40
2023-03-20T20:59:08.213Z,9.39
2023-03-20T21:01:34.986Z,9.38
2023-03-20T21:04:02.349Z,9.37
2023-03-20T21:06:57.987Z,9.36
2023-03-20T21:09:15.350Z,9.35
2023-03-20T21:11:41.853Z,9.34
2023-03-20T21:14:08.389Z,9.32
2023-03-20T21:16:35.416Z,9.32
2023-03-20T21:19:01.937Z,9.30
2023-03-20T21:21:28.437Z,9.27
2023-03-20T21:23:55.472Z,9.27
2023-03-20T21:26:22.319Z,9.27
2023-03-20T21:28:48.887Z,9.25
2023-03-20T21:31:26.764Z,9.22
2023-03-20T21:33:55.465Z,9.21
2023-03-20T21:36:23.417Z,9.20
2023-03-20T21:39:08.679Z,9.20
2023-03-20T21:41:37.840Z,9.20
2023-03-20T21:44:06.451Z,9.19
2023-03-20T22:03:30.854Z,9.21
2023-03-20T22:07:18.735Z,9.24
2023-03-20T22:12:43.638Z,9.22
2023-03-20T22:15:33.924Z,9.19
2023-03-20T22:17:59.859Z,9.14
2023-03-20T22:23:45.550Z,9.08
2023-03-20T22:27:01.556Z,9.06
2023-03-20T22:29:35.890Z,9.04
2023-03-20T22:37:48.227Z,9.02
2023-03-20T22:40:42.060Z,9.00
2023-03-20T22:45:28.872Z,8.89
2023-03-20T22:48:01.460Z,8.82
2023-03-20T22:50:28.275Z,8.80
2023-03-20T22:52:55.615Z,8.80
2023-03-20T22:55:24.927Z,8.80
2023-03-20T22:58:05.938Z,8.82
2023-03-20T23:00:35.007Z,8.84
2023-03-20T23:03:15.393Z,8.84
2023-03-20T23:05:47.202Z,8.84
2023-03-20T23:08:14.079Z,8.85
2023-03-20T23:10:45.802Z,8.86
2023-03-20T23:13:12.624Z,8.86
2023-03-20T23:15:39.464Z,8.84
2023-03-20T23:18:06.287Z,8.84
2023-03-20T23:20:32.872Z,8.86
2023-03-20T23:22:59.364Z,8.86
2023-03-20T23:25:38.278Z,8.85
2023-03-20T23:28:06.756Z,8.87
2023-03-20T23:30:41.921Z,8.88
2023-03-20T23:33:10.606Z,8.88
2023-03-20T23:35:37.126Z,8.88
2023-03-20T23:38:04.132Z,8.86
2023-03-20T23:40:30.996Z,8.85
2023-03-20T23:42:57.547Z,8.86
2023-03-20T23:45:24.082Z,8.83
2023-03-20T23:47:50.977Z,8.76
2023-03-20T23:50:28.848Z,8.70
2023-03-20T23:53:09.416Z,8.69
2023-03-20T23:55:40.772Z,8.68
2023-03-20T23:58:07.565Z,8.70
